sensor_id;sensor_type;location;lat;lon;timestamp;pressure;altitude;pressure_sealevel;temperature;humidity
74716;BME280;63234;37.558;127.058;2023-08-08T00:01:32;100244.38;;;14.98;67.20
74716;BME280;63234;37.558;127.058;2023-08-08T00:03:58;100250.84;;;15.02;66.87
74716;BME280;63234;37.558;127.058;2023-08-08T00:06:24;100250.28;;;15.00;67.26
74716;BME280;63234;37.558;127.058;2023-08-08T00:08:50;100259.31;;;14.94;67.24
74716;BME280;63234;37.558;127.058;2023-08-08T00:11:16;100256.22;;;15.02;67.38
74716;BME280;63234;37.558;127.058;2023-08-08T00:13:42;100257.50;;;14.99;67.62
74716;BME280;63234;37.558;127.058;2023-08-08T00:16:08;100242.72;;;14.75;68.19
74716;BME280;63234;37.558;127.058;2023-08-08T00:18:34;100248.19;;;14.85;68.39
74716;BME280;63234;37.558;127.058;2023-08-08T00:21:00;100242.47;;;14.76;68.40
74716;BME280;63234;37.558;127.058;2023-08-08T00:23:25;100251.00;;;14.73;68.96
74716;BME280;63234;37.558;127.058;2023-08-08T00:25:51;100251.22;;;14.88;68.58
74716;BME280;63234;37.558;127.058;2023-08-08T00:28:18;100245.38;;;14.75;68.44
74716;BME280;63234;37.558;127.058;2023-08-08T00:30:44;100247.03;;;14.59;69.43
74716;BME280;63234;37.558;127.058;2023-08-08T00:33:10;100246.78;;;14.77;68.86
74716;BME280;63234;37.558;127.058;2023-08-08T00:35:35;100242.53;;;14.81;68.54
74716;BME280;63234;37.558;127.058;2023-08-08T00:38:01;100236.38;;;14.81;68.44
74716;BME280;63234;37.558;127.058;2023-08-08T00:40:27;100224.06;;;14.63;68.83
74716;BME280;63234;37.558;127.058;2023-08-08T00:42:53;100234.06;;;14.67;68.89
74716;BME280;63234;37.558;127.058;2023-08-08T00:45:19;100233.00;;;14.68;69.01
74716;BME280;63234;37.558;127.058;2023-08-08T00:47:44;100231.28;;;14.62;69.32
74716;BME280;63234;37.558;127.058;2023-08-08T00:50:11;100238.84;;;14.65;69.26
74716;BME280;63234;37.558;127.058;2023-08-08T00:52:38;100233.38;;;14.77;69.54
74716;BME280;63234;37.558;127.058;2023-08-08T00:55:05;100229.63;;;14.78;68.75
74716;BME280;63234;37.558;127.058;2023-08-08T00:57:32;100229.63;;;14.78;68.89
74716;BME280;63234;37.558;127.058;2023-08-08T00:59:58;100220.00;;;14.77;69.30
74716;BME280;63234;37.558;127.058;2023-08-08T01:02:23;100230.31;;;14.68;69.48
74716;BME280;63234;37.558;127.058;2023-08-08T01:04:49;100218.81;;;14.68;69.49
74716;BME280;63234;37.558;127.058;2023-08-08T01:07:33;100216.22;;;14.73;69.67
74716;BME280;63234;37.558;127.058;2023-08-08T01:10:21;100219.28;;;14.65;69.84
74716;BME280;63234;37.558;127.058;2023-08-08T01:12:52;100218.97;;;14.61;69.81
74716;BME280;63234;37.558;127.058;2023-08-08T01:15:21;100209.81;;;14.57;70.06
74716;BME280;63234;37.558;127.058;2023-08-08T01:17:48;100215.66;;;14.54;70.95
74716;BME280;63234;37.558;127.058;2023-08-08T01:20:14;100219.22;;;14.60;70.42
74716;BME280;63234;37.558;127.058;2023-08-08T01:23:09;100232.75;;;14.53;71.14
74716;BME280;63234;37.558;127.058;2023-08-08T01:25:38;100232.41;;;14.50;71.15
74716;BME280;63234;37.558;127.058;2023-08-08T01:28:06;100224.16;;;14.68;70.66
74716;BME280;63234;37.558;127.058;2023-08-08T01:30:32;100221.34;;;14.58;70.98
74716;BME280;63234;37.558;127.058;2023-08-08T01:32:58;100230.22;;;14.63;71.15
74716;BME280;63234;37.558;127.058;2023-08-08T01:35:26;100220.00;;;14.60;70.99
74716;BME280;63234;37.558;127.058;2023-08-08T01:38:08;100223.25;;;14.45;71.40
74716;BME280;63234;37.558;127.058;2023-08-08T01:40:38;100210.63;;;14.58;70.84
74716;BME280;63234;37.558;127.058;2023-08-08T01:43:07;100216.53;;;14.60;70.92
74716;BME280;63234;37.558;127.058;2023-08-08T01:45:33;100208.50;;;14.60;70.88
74716;BME280;63234;37.558;127.058;2023-08-08T01:47:59;100221.56;;;14.73;70.53
74716;BME280;63234;37.558;127.058;2023-08-08T01:50:25;100214.03;;;14.70;70.66
74716;BME280;63234;37.558;127.058;2023-08-08T01:52:51;100218.66;;;14.58;71.06
74716;BME280;63234;37.558;127.058;2023-08-08T01:55:17;100221.09;;;14.59;71.03
74716;BME280;63234;37.558;127.058;2023-08-08T01:57:43;100226.69;;;14.58;71.05
74716;BME280;63234;37.558;127.058;2023-08-08T02:00:09;100225.84;;;14.57;71.07
74716;BME280;63234;37.558;127.058;2023-08-08T02:02:35;100216.22;;;14.56;70.88
74716;BME280;63234;37.558;127.058;2023-08-08T02:05:02;100225.00;;;14.52;71.32
74716;BME280;63234;37.558;127.058;2023-08-08T02:07:28;100229.84;;;14.55;70.66
74716;BME280;63234;37.558;127.058;2023-08-08T02:09:53;100234.72;;;14.58;70.66
74716;BME280;63234;37.558;127.058;2023-08-08T02:12:19;100229.75;;;14.50;70.95
74716;BME280;63234;37.558;127.058;2023-08-08T02:14:45;100227.66;;;14.52;70.78
74716;BME280;63234;37.558;127.058;2023-08-08T02:17:11;100227.06;;;14.50;70.82
74716;BME280;63234;37.558;127.058;2023-08-08T02:19:37;100220.25;;;14.42;70.89
74716;BME280;63234;37.558;127.058;2023-08-08T02:22:03;100225.94;;;14.45;70.86
74716;BME280;63234;37.558;127.058;2023-08-08T02:24:29;100219.16;;;14.55;70.45
74716;BME280;63234;37.558;127.058;2023-08-08T02:26:54;100220.19;;;14.54;70.75
74716;BME280;63234;37.558;127.058;2023-08-08T02:29:20;100213.06;;;14.42;70.98
74716;BME280;63234;37.558;127.058;2023-08-08T02:31:46;100212.78;;;14.44;70.86
74716;BME280;63234;37.558;127.058;2023-08-08T02:34:12;100215.06;;;14.35;71.32
74716;BME280;63234;37.558;127.058;2023-08-08T02:36:38;100215.63;;;14.37;70.98
74716;BME280;63234;37.558;127.058;2023-08-08T02:39:04;100216.53;;;14.26;71.55
74716;BME280;63234;37.558;127.058;2023-08-08T02:41:29;100212.94;;;14.20;71.20
74716;BME280;63234;37.558;127.058;2023-08-08T02:43:55;100226.09;;;14.22;71.45
74716;BME280;63234;37.558;127.058;2023-08-08T02:46:21;100228.13;;;14.32;71.32
74716;BME280;63234;37.558;127.058;2023-08-08T02:48:47;100224.94;;;14.18;71.76
74716;BME280;63234;37.558;127.058;2023-08-08T02:51:13;100230.47;;;14.28;71.25
74716;BME280;63234;37.558;127.058;2023-08-08T02:53:39;100228.34;;;14.30;71.21
74716;BME280;63234;37.558;127.058;2023-08-08T02:56:05;100216.59;;;13.97;72.25
74716;BME280;63234;37.558;127.058;2023-08-08T02:58:30;100229.16;;;13.97;71.94
74716;BME280;63234;37.558;127.058;2023-08-08T03:00:56;100224.13;;;14.00;72.31
74716;BME280;63234;37.558;127.058;2023-08-08T03:03:22;100227.63;;;14.18;71.71
74716;BME280;63234;37.558;127.058;2023-08-08T03:05:49;100227.88;;;14.16;71.46
74716;BME280;63234;37.558;127.058;2023-08-08T03:08:15;100222.09;;;14.08;71.74
74716;BME280;63234;37.558;127.058;2023-08-08T03:10:41;100217.50;;;14.20;71.80
74716;BME280;63234;37.558;127.058;2023-08-08T03:13:07;100216.66;;;14.03;71.92
74716;BME280;63234;37.558;127.058;2023-08-08T03:15:33;100225.09;;;14.11;71.64
74716;BME280;63234;37.558;127.058;2023-08-08T03:17:59;100222.53;;;14.16;71.75
74716;BME280;63234;37.558;127.058;2023-08-08T03:20:24;100221.84;;;13.92;71.90
74716;BME280;63234;37.558;127.058;2023-08-08T03:22:50;100223.50;;;14.10;71.77
74716;BME280;63234;37.558;127.058;2023-08-08T03:25:16;100223.06;;;14.02;71.60
74716;BME280;63234;37.558;127.058;2023-08-08T03:27:42;100220.19;;;14.03;71.87
74716;BME280;63234;37.558;127.058;2023-08-08T03:30:09;100219.28;;;13.97;72.33
74716;BME280;63234;37.558;127.058;2023-08-08T03:32:35;100222.53;;;13.71;73.04
74716;BME280;63234;37.558;127.058;2023-08-08T03:35:02;100226.06;;;13.88;72.49
74716;BME280;63234;37.558;127.058;2023-08-08T03:37:29;100218.56;;;13.73;72.71
74716;BME280;63234;37.558;127.058;2023-08-08T03:39:55;100216.13;;;13.72;72.98
74716;BME280;63234;37.558;127.058;2023-08-08T03:42:21;100228.78;;;13.76;72.74
74716;BME280;63234;37.558;127.058;2023-08-08T03:44:46;100226.34;;;13.75;73.20
74716;BME280;63234;37.558;127.058;2023-08-08T03:47:12;100231.56;;;13.82;73.14
74716;BME280;63234;37.558;127.058;2023-08-08T03:49:38;100224.16;;;13.72;73.26
74716;BME280;63234;37.558;127.058;2023-08-08T03:52:04;100223.44;;;13.76;73.39
74716;BME280;63234;37.558;127.058;2023-08-08T03:54:30;100212.66;;;13.71;73.68
74716;BME280;63234;37.558;127.058;2023-08-08T03:56:56;100225.31;;;13.76;73.34
74716;BME280;63234;37.558;127.058;2023-08-08T03:59:22;100217.13;;;13.54;74.01
74716;BME280;63234;37.558;127.058;2023-08-08T04:01:48;100223.53;;;13.53;74.08
74716;BME280;63234;37.558;127.058;2023-08-08T04:04:14;100224.13;;;13.55;73.96
74716;BME280;63234;37.558;127.058;2023-08-08T04:06:40;100215.66;;;13.46;74.24
74716;BME280;63234;37.558;127.058;2023-08-08T04:09:06;100220.75;;;13.48;74.19
74716;BME280;63234;37.558;127.058;2023-08-08T04:11:32;100222.34;;;13.61;74.04
74716;BME280;63234;37.558;127.058;2023-08-08T04:14:00;100217.72;;;13.56;73.62
74716;BME280;63234;37.558;127.058;2023-08-08T04:16:26;100221.50;;;13.31;74.65
74716;BME280;63234;37.558;127.058;2023-08-08T04:18:52;100224.16;;;13.43;74.42
74716;BME280;63234;37.558;127.058;2023-08-08T04:21:18;100227.28;;;13.40;74.25
74716;BME280;63234;37.558;127.058;2023-08-08T04:23:44;100231.81;;;13.51;73.95
74716;BME280;63234;37.558;127.058;2023-08-08T04:26:10;100241.53;;;13.58;74.02
74716;BME280;63234;37.558;127.058;2023-08-08T04:28:36;100243.44;;;13.45;73.86
74716;BME280;63234;37.558;127.058;2023-08-08T04:31:02;100237.19;;;13.40;74.25
74716;BME280;63234;37.558;127.058;2023-08-08T04:33:28;100244.84;;;13.36;74.58
74716;BME280;63234;37.558;127.058;2023-08-08T04:35:54;100239.44;;;13.48;74.24
74716;BME280;63234;37.558;127.058;2023-08-08T04:38:20;100242.00;;;13.54;73.78
74716;BME280;63234;37.558;127.058;2023-08-08T04:40:45;100245.50;;;13.55;73.53
74716;BME280;63234;37.558;127.058;2023-08-08T04:43:11;100237.19;;;13.40;74.18
74716;BME280;63234;37.558;127.058;2023-08-08T04:45:37;100238.78;;;13.41;74.29
74716;BME280;63234;37.558;127.058;2023-08-08T04:48:03;100245.34;;;13.62;73.68
74716;BME280;63234;37.558;127.058;2023-08-08T04:50:29;100234.50;;;13.68;73.29
74716;BME280;63234;37.558;127.058;2023-08-08T04:52:55;100234.50;;;13.68;73.11
74716;BME280;63234;37.558;127.058;2023-08-08T04:55:21;100234.19;;;13.65;73.11
74716;BME280;63234;37.558;127.058;2023-08-08T04:57:47;100237.66;;;13.65;73.01
74716;BME280;63234;37.558;127.058;2023-08-08T05:00:14;100246.88;;;13.58;73.02
74716;BME280;63234;37.558;127.058;2023-08-08T05:02:40;100237.97;;;13.40;73.90
74716;BME280;63234;37.558;127.058;2023-08-08T05:05:07;100226.16;;;13.36;73.62
74716;BME280;63234;37.558;127.058;2023-08-08T05:07:33;100234.25;;;13.41;73.98
74716;BME280;63234;37.558;127.058;2023-08-08T05:10:01;100235.66;;;13.44;73.73
74716;BME280;63234;37.558;127.058;2023-08-08T05:12:28;100228.69;;;13.43;73.88
74716;BME280;63234;37.558;127.058;2023-08-08T05:14:54;100242.47;;;13.51;73.87
74716;BME280;63234;37.558;127.058;2023-08-08T05:17:20;100241.72;;;13.68;73.43
74716;BME280;63234;37.558;127.058;2023-08-08T05:19:46;100234.94;;;13.77;73.10
74716;BME280;63234;37.558;127.058;2023-08-08T05:22:12;100237.66;;;13.65;73.34
74716;BME280;63234;37.558;127.058;2023-08-08T05:24:38;100227.13;;;13.59;73.42
74716;BME280;63234;37.558;127.058;2023-08-08T05:27:04;100234.28;;;13.70;73.11
74716;BME280;63234;37.558;127.058;2023-08-08T05:29:30;100231.69;;;13.75;73.22
74716;BME280;63234;37.558;127.058;2023-08-08T05:31:56;100222.38;;;13.77;72.90
74716;BME280;63234;37.558;127.058;2023-08-08T05:34:23;100227.66;;;13.89;72.82
74716;BME280;63234;37.558;127.058;2023-08-08T05:36:50;100224.25;;;13.77;73.16
74716;BME280;63234;37.558;127.058;2023-08-08T05:39:16;100218.31;;;13.75;73.04
74716;BME280;63234;37.558;127.058;2023-08-08T05:41:42;100225.66;;;13.96;72.59
74716;BME280;63234;37.558;127.058;2023-08-08T05:44:07;100223.28;;;13.83;72.63
74716;BME280;63234;37.558;127.058;2023-08-08T05:46:33;100228.53;;;13.78;72.72
74716;BME280;63234;37.558;127.058;2023-08-08T05:48:59;100232.75;;;13.74;72.92
74716;BME280;63234;37.558;127.058;2023-08-08T05:51:26;100238.03;;;13.86;72.71
74716;BME280;63234;37.558;127.058;2023-08-08T05:53:52;100234.56;;;14.02;71.94
74716;BME280;63234;37.558;127.058;2023-08-08T05:56:18;100241.16;;;14.11;71.21
74716;BME280;63234;37.558;127.058;2023-08-08T05:58:44;100235.91;;;14.16;71.06
74716;BME280;63234;37.558;127.058;2023-08-08T06:01:10;100223.91;;;14.19;70.61
74716;BME280;63234;37.558;127.058;2023-08-08T06:03:37;100231.50;;;14.27;71.00
74716;BME280;63234;37.558;127.058;2023-08-08T06:06:03;100243.03;;;14.44;70.26
74716;BME280;63234;37.558;127.058;2023-08-08T06:08:30;100241.06;;;14.52;70.28
74716;BME280;63234;37.558;127.058;2023-08-08T06:10:57;100243.84;;;14.45;69.53
74716;BME280;63234;37.558;127.058;2023-08-08T06:13:23;100249.75;;;14.47;69.71
74716;BME280;63234;37.558;127.058;2023-08-08T06:15:49;100246.03;;;14.48;69.78
74716;BME280;63234;37.558;127.058;2023-08-08T06:18:16;100239.41;;;14.34;69.89
74716;BME280;63234;37.558;127.058;2023-08-08T06:20:42;100240.69;;;14.65;69.20
74716;BME280;63234;37.558;127.058;2023-08-08T06:23:08;100240.44;;;14.66;68.87
74716;BME280;63234;37.558;127.058;2023-08-08T06:25:34;100247.19;;;14.69;68.38
74716;BME280;63234;37.558;127.058;2023-08-08T06:28:00;100246.94;;;14.54;69.02
74716;BME280;63234;37.558;127.058;2023-08-08T06:30:26;100234.88;;;14.68;68.35
74716;BME280;63234;37.558;127.058;2023-08-08T06:32:52;100252.31;;;14.71;68.37
74716;BME280;63234;37.558;127.058;2023-08-08T06:35:18;100245.38;;;14.75;68.26
74716;BME280;63234;37.558;127.058;2023-08-08T06:37:44;100246.19;;;14.75;68.08
74716;BME280;63234;37.558;127.058;2023-08-08T06:40:10;100251.84;;;14.96;67.84
74716;BME280;63234;37.558;127.058;2023-08-08T06:42:36;100252.34;;;14.93;67.71
74716;BME280;63234;37.558;127.058;2023-08-08T06:45:02;100255.59;;;14.95;67.25
74716;BME280;63234;37.558;127.058;2023-08-08T06:47:28;100258.53;;;15.15;66.94
74716;BME280;63234;37.558;127.058;2023-08-08T06:49:54;100258.22;;;15.11;66.83
74716;BME280;63234;37.558;127.058;2023-08-08T06:52:21;100257.41;;;15.33;66.64
74716;BME280;63234;37.558;127.058;2023-08-08T06:54:47;100244.59;;;15.35;66.66
74716;BME280;63234;37.558;127.058;2023-08-08T06:57:13;100240.22;;;15.29;66.68
74716;BME280;63234;37.558;127.058;2023-08-08T06:59:39;100248.00;;;15.52;66.55
74716;BME280;63234;37.558;127.058;2023-08-08T07:02:05;100242.28;;;15.44;65.92
74716;BME280;63234;37.558;127.058;2023-08-08T07:04:31;100240.97;;;15.46;66.46
74716;BME280;63234;37.558;127.058;2023-08-08T07:06:57;100244.06;;;15.60;66.25
74716;BME280;63234;37.558;127.058;2023-08-08T07:09:23;100243.31;;;15.65;66.02
74716;BME280;63234;37.558;127.058;2023-08-08T07:11:49;100244.75;;;15.72;66.18
74716;BME280;63234;37.558;127.058;2023-08-08T07:14:14;100231.13;;;15.74;66.57
74716;BME280;63234;37.558;127.058;2023-08-08T07:16:40;100237.38;;;15.85;65.91
74716;BME280;63234;37.558;127.058;2023-08-08T07:19:06;100236.41;;;15.96;64.38
74716;BME280;63234;37.558;127.058;2023-08-08T07:21:32;100238.03;;;15.97;64.51
74716;BME280;63234;37.558;127.058;2023-08-08T07:23:58;100232.22;;;16.05;64.95
74716;BME280;63234;37.558;127.058;2023-08-08T07:26:24;100231.63;;;16.30;64.19
74716;BME280;63234;37.558;127.058;2023-08-08T07:28:50;100220.69;;;16.42;63.81
74716;BME280;63234;37.558;127.058;2023-08-08T07:31:16;100232.63;;;16.24;63.76
74716;BME280;63234;37.558;127.058;2023-08-08T07:33:42;100216.88;;;16.33;64.17
74716;BME280;63234;37.558;127.058;2023-08-08T07:36:07;100221.00;;;16.45;62.91
74716;BME280;63234;37.558;127.058;2023-08-08T07:38:33;100216.47;;;16.51;62.23
74716;BME280;63234;37.558;127.058;2023-08-08T07:40:59;100211.56;;;16.43;62.54
74716;BME280;63234;37.558;127.058;2023-08-08T07:43:25;100217.84;;;16.54;62.75
74716;BME280;63234;37.558;127.058;2023-08-08T07:45:52;100218.81;;;16.80;62.43
74716;BME280;63234;37.558;127.058;2023-08-08T07:48:18;100218.81;;;16.80;62.55
74716;BME280;63234;37.558;127.058;2023-08-08T07:50:43;100216.81;;;17.02;62.31
74716;BME280;63234;37.558;127.058;2023-08-08T07:53:09;100220.47;;;16.86;62.42
74716;BME280;63234;37.558;127.058;2023-08-08T07:55:36;100218.84;;;16.85;62.58
74716;BME280;63234;37.558;127.058;2023-08-08T07:58:01;100215.78;;;17.18;61.80
74716;BME280;63234;37.558;127.058;2023-08-08T08:00:27;100214.00;;;17.45;61.20
74716;BME280;63234;37.558;127.058;2023-08-08T08:02:53;100220.19;;;17.45;60.45
74716;BME280;63234;37.558;127.058;2023-08-08T08:05:19;100208.94;;;17.53;60.57
74716;BME280;63234;37.558;127.058;2023-08-08T08:07:44;100208.41;;;17.56;60.03
74716;BME280;63234;37.558;127.058;2023-08-08T08:10:11;100213.72;;;17.46;60.03
74716;BME280;63234;37.558;127.058;2023-08-08T08:12:39;100210.00;;;17.57;59.75
74716;BME280;63234;37.558;127.058;2023-08-08T08:15:07;100200.06;;;17.63;59.95
74716;BME280;63234;37.558;127.058;2023-08-08T08:17:33;100198.81;;;17.96;59.28
74716;BME280;63234;37.558;127.058;2023-08-08T08:19:59;100201.78;;;17.90;59.03
74716;BME280;63234;37.558;127.058;2023-08-08T08:22:25;100202.56;;;17.95;59.12
74716;BME280;63234;37.558;127.058;2023-08-08T08:24:50;100199.59;;;18.07;58.84
74716;BME280;63234;37.558;127.058;2023-08-08T08:27:17;100200.16;;;18.09;57.60
74716;BME280;63234;37.558;127.058;2023-08-08T08:29:43;100190.19;;;18.25;58.00
74716;BME280;63234;37.558;127.058;2023-08-08T08:32:09;100195.56;;;18.30;57.77
74716;BME280;63234;37.558;127.058;2023-08-08T08:34:35;100204.16;;;18.52;57.59
74716;BME280;63234;37.558;127.058;2023-08-08T08:37:01;100199.34;;;18.44;56.86
74716;BME280;63234;37.558;127.058;2023-08-08T08:39:27;100199.34;;;18.44;57.03
74716;BME280;63234;37.558;127.058;2023-08-08T08:41:58;100199.56;;;18.58;56.87
74716;BME280;63234;37.558;127.058;2023-08-08T08:44:27;100206.88;;;18.37;56.58
74716;BME280;63234;37.558;127.058;2023-08-08T08:46:55;100202.84;;;18.45;56.71
74716;BME280;63234;37.558;127.058;2023-08-08T08:49:24;100190.72;;;18.27;57.22
74716;BME280;63234;37.558;127.058;2023-08-08T08:51:50;100200.38;;;18.64;56.81
74716;BME280;63234;37.558;127.058;2023-08-08T08:54:16;100189.91;;;18.37;56.71
74716;BME280;63234;37.558;127.058;2023-08-08T08:56:43;100199.31;;;18.60;56.44
74716;BME280;63234;37.558;127.058;2023-08-08T08:59:08;100189.34;;;18.60;56.54
74716;BME280;63234;37.558;127.058;2023-08-08T09:01:34;100195.22;;;18.72;57.21
74716;BME280;63234;37.558;127.058;2023-08-08T09:04:02;100198.16;;;18.91;56.47
74716;BME280;63234;37.558;127.058;2023-08-08T09:06:29;100187.16;;;18.77;56.15
74716;BME280;63234;37.558;127.058;2023-08-08T09:08:55;100182.00;;;18.96;56.11
74716;BME280;63234;37.558;127.058;2023-08-08T09:11:21;100194.00;;;19.19;55.54
74716;BME280;63234;37.558;127.058;2023-08-08T09:13:47;100179.78;;;19.03;56.20
74716;BME280;63234;37.558;127.058;2023-08-08T09:16:14;100180.22;;;19.26;55.73
74716;BME280;63234;37.558;127.058;2023-08-08T09:18:43;100177.59;;;19.11;54.29
74716;BME280;63234;37.558;127.058;2023-08-08T09:21:10;100172.50;;;19.04;53.70
74716;BME280;63234;37.558;127.058;2023-08-08T09:23:37;100177.59;;;19.11;53.92
74716;BME280;63234;37.558;127.058;2023-08-08T09:26:04;100176.56;;;19.01;54.95
74716;BME280;63234;37.558;127.058;2023-08-08T09:28:30;100171.66;;;19.14;55.01
74716;BME280;63234;37.558;127.058;2023-08-08T09:30:57;100174.03;;;19.25;54.05
74716;BME280;63234;37.558;127.058;2023-08-08T09:33:23;100174.47;;;19.43;53.96
74716;BME280;63234;37.558;127.058;2023-08-08T09:35:48;100163.69;;;19.48;53.64
74716;BME280;63234;37.558;127.058;2023-08-08T09:38:14;100165.34;;;19.83;52.70
74716;BME280;63234;37.558;127.058;2023-08-08T09:40:40;100158.69;;;19.70;52.80
74716;BME280;63234;37.558;127.058;2023-08-08T09:43:07;100154.88;;;19.71;52.39
74716;BME280;63234;37.558;127.058;2023-08-08T09:45:40;100151.94;;;19.73;51.64
74716;BME280;63234;37.558;127.058;2023-08-08T09:48:10;100155.53;;;19.92;51.49
74716;BME280;63234;37.558;127.058;2023-08-08T09:50:36;100156.63;;;19.91;51.51
74716;BME280;63234;37.558;127.058;2023-08-08T09:53:02;100148.84;;;20.19;51.80
74716;BME280;63234;37.558;127.058;2023-08-08T09:55:29;100150.56;;;20.39;51.46
74716;BME280;63234;37.558;127.058;2023-08-08T09:57:57;100132.59;;;20.24;51.00
74716;BME280;63234;37.558;127.058;2023-08-08T10:00:24;100130.47;;;20.21;51.59
74716;BME280;63234;37.558;127.058;2023-08-08T10:02:54;100132.00;;;20.03;50.25
74716;BME280;63234;37.558;127.058;2023-08-08T10:05:21;100146.88;;;19.96;51.05
74716;BME280;63234;37.558;127.058;2023-08-08T10:07:47;100140.00;;;19.79;51.87
74716;BME280;63234;37.558;127.058;2023-08-08T10:10:13;100132.59;;;19.95;51.36
74716;BME280;63234;37.558;127.058;2023-08-08T10:12:40;100137.66;;;20.02;49.65
74716;BME280;63234;37.558;127.058;2023-08-08T10:15:08;100140.84;;;20.09;50.07
74716;BME280;63234;37.558;127.058;2023-08-08T10:17:40;100140.59;;;20.34;49.21
74716;BME280;63234;37.558;127.058;2023-08-08T10:23:38;100130.00;;;20.38;46.29
74716;BME280;63234;37.558;127.058;2023-08-08T10:26:04;100118.41;;;20.37;45.35
74716;BME280;63234;37.558;127.058;2023-08-08T10:28:32;100130.59;;;20.64;45.39
74716;BME280;63234;37.558;127.058;2023-08-08T10:31:00;100126.66;;;20.75;43.74
74716;BME280;63234;37.558;127.058;2023-08-08T10:36:57;100126.34;;;21.01;43.77
74716;BME280;63234;37.558;127.058;2023-08-08T10:39:24;100136.19;;;20.92;44.39
74716;BME280;63234;37.558;127.058;2023-08-08T10:41:51;100131.16;;;20.85;44.58
74716;BME280;63234;37.558;127.058;2023-08-08T10:44:24;100129.16;;;20.91;45.20
74716;BME280;63234;37.558;127.058;2023-08-08T10:46:51;100118.75;;;21.03;43.54
74716;BME280;63234;37.558;127.058;2023-08-08T10:49:18;100114.94;;;20.85;42.56
74716;BME280;63234;37.558;127.058;2023-08-08T10:51:46;100117.22;;;20.97;42.79
74716;BME280;63234;37.558;127.058;2023-08-08T10:56:47;100115.69;;;21.10;43.26
74716;BME280;63234;37.558;127.058;2023-08-08T10:59:21;100120.53;;;21.50;42.90
74716;BME280;63234;37.558;127.058;2023-08-08T11:01:49;100120.09;;;21.43;42.77
74716;BME280;63234;37.558;127.058;2023-08-08T11:04:19;100119.31;;;21.43;41.37
74716;BME280;63234;37.558;127.058;2023-08-08T11:06:46;100118.31;;;21.34;42.15
74716;BME280;63234;37.558;127.058;2023-08-08T11:09:13;100114.25;;;21.36;41.92
74716;BME280;63234;37.558;127.058;2023-08-08T11:11:41;100115.38;;;21.30;41.55
74716;BME280;63234;37.558;127.058;2023-08-08T11:17:29;100121.38;;;21.27;42.24
74716;BME280;63234;37.558;127.058;2023-08-08T11:19:55;100129.16;;;21.34;42.38
74716;BME280;63234;37.558;127.058;2023-08-08T11:22:21;100125.31;;;21.40;43.15
74716;BME280;63234;37.558;127.058;2023-08-08T11:24:51;100119.56;;;21.03;42.79
74716;BME280;63234;37.558;127.058;2023-08-08T11:27:17;100123.44;;;21.16;43.37
74716;BME280;63234;37.558;127.058;2023-08-08T11:29:52;100107.16;;;21.40;43.12
74716;BME280;63234;37.558;127.058;2023-08-08T11:32:18;100105.41;;;21.49;41.00
74716;BME280;63234;37.558;127.058;2023-08-08T11:34:46;100102.03;;;21.39;41.85
74716;BME280;63234;37.558;127.058;2023-08-08T11:37:12;100108.59;;;21.14;41.72
74716;BME280;63234;37.558;127.058;2023-08-08T11:39:41;100116.13;;;21.17;42.78
74716;BME280;63234;37.558;127.058;2023-08-08T11:42:07;100121.69;;;21.06;42.87
74716;BME280;63234;37.558;127.058;2023-08-08T11:44:33;100114.72;;;21.00;43.51
74716;BME280;63234;37.558;127.058;2023-08-08T11:47:00;100112.03;;;21.00;42.51
74716;BME280;63234;37.558;127.058;2023-08-08T11:49:26;100112.88;;;20.96;43.13
74716;BME280;63234;37.558;127.058;2023-08-08T11:51:54;100107.63;;;21.04;43.51
74716;BME280;63234;37.558;127.058;2023-08-08T11:54:27;100116.28;;;21.06;43.32
74716;BME280;63234;37.558;127.058;2023-08-08T11:56:54;100119.09;;;20.96;43.29
74716;BME280;63234;37.558;127.058;2023-08-08T11:59:20;100118.44;;;20.85;43.25
74716;BME280;63234;37.558;127.058;2023-08-08T12:01:46;100108.56;;;20.76;43.45
74716;BME280;63234;37.558;127.058;2023-08-08T12:04:14;100114.47;;;20.78;43.67
74716;BME280;63234;37.558;127.058;2023-08-08T12:06:41;100116.38;;;20.77;43.56
74716;BME280;63234;37.558;127.058;2023-08-08T12:09:13;100110.44;;;20.75;44.12
74716;BME280;63234;37.558;127.058;2023-08-08T12:11:39;100113.28;;;20.65;44.06
74716;BME280;63234;37.558;127.058;2023-08-08T12:14:08;100112.66;;;20.73;44.07
74716;BME280;63234;37.558;127.058;2023-08-08T12:16:39;100111.00;;;20.72;44.13
74716;BME280;63234;37.558;127.058;2023-08-08T12:19:08;100107.06;;;20.65;44.05
74716;BME280;63234;37.558;127.058;2023-08-08T12:21:38;100100.34;;;20.62;43.94
74716;BME280;63234;37.558;127.058;2023-08-08T12:24:04;100106.69;;;20.52;44.40
74716;BME280;63234;37.558;127.058;2023-08-08T12:26:30;100099.19;;;20.68;44.25
74716;BME280;63234;37.558;127.058;2023-08-08T12:28:56;100104.44;;;20.78;44.35
74716;BME280;63234;37.558;127.058;2023-08-08T12:31:21;100099.72;;;20.89;43.75
74716;BME280;63234;37.558;127.058;2023-08-08T12:33:47;100089.66;;;20.95;43.25
74716;BME280;63234;37.558;127.058;2023-08-08T12:36:14;100089.66;;;20.95;41.92
74716;BME280;63234;37.558;127.058;2023-08-08T12:38:40;100083.13;;;20.77;40.75
74716;BME280;63234;37.558;127.058;2023-08-08T12:41:06;100088.19;;;20.83;41.25